Time;durP1;ratioP1;P1;durP2;ratioP2;P2;SDS_P1;SDS_P2;PMS_P1;PMS_P2;Temp;Humidity;BMP_temperature;BMP_pressure;BME280_temperature;BME280_humidity;BME280_pressure;Samples;Min_cycle;Max_cycle;Signal;HPM_P1;HPM_P2
2021/01/25 00:01:36;;;;;;;13.23;3.00;;;10.00;76.60;;;;;;4967654;28;80166;-70
2021/01/25 00:04:02;;;;;;;13.07;2.38;;;10.10;76.50;;;;;;4949780;28;80711;-70
2021/01/25 00:06:28;;;;;;;8.68;2.75;;;10.20;76.30;;;;;;4967263;28;80523;-70
2021/01/25 00:08:53;;;;;;;11.98;2.75;;;10.30;76.20;;;;;;4948979;28;82510;-70
2021/01/25 00:11:20;;;;;;;15.50;2.35;;;10.30;76.00;;;;;;4949360;28;81489;-69
2021/01/25 00:13:46;;;;;;;9.55;2.25;;;10.30;75.90;;;;;;4967469;28;80642;-69
2021/01/25 00:16:12;;;;;;;11.43;2.83;;;10.40;75.90;;;;;;4967259;28;80424;-70
2021/01/25 00:18:37;;;;;;;11.95;2.38;;;10.40;75.90;;;;;;4967393;28;80675;-70
2021/01/25 00:21:04;;;;;;;13.63;2.53;;;10.40;75.90;;;;;;4949681;28;81732;-72
2021/01/25 00:23:29;;;;;;;14.20;3.55;;;10.40;75.90;;;;;;4949189;28;83547;-69
2021/01/25 00:25:56;;;;;;;17.70;3.50;;;10.40;75.90;;;;;;4949352;28;82453;-69
2021/01/25 00:28:22;;;;;;;11.73;2.35;;;10.40;75.90;;;;;;4949167;28;80873;-69
2021/01/25 00:30:47;;;;;;;18.52;2.70;;;10.40;75.90;;;;;;4967112;28;80260;-71
2021/01/25 00:33:13;;;;;;;14.30;3.78;;;10.40;75.90;;;;;;4967122;28;80568;-69
2021/01/25 00:35:39;;;;;;;13.85;3.45;;;10.50;75.90;;;;;;4948944;28;81385;-69
2021/01/25 00:38:05;;;;;;;14.38;2.50;;;10.50;76.00;;;;;;4949281;28;83395;-69
2021/01/25 00:40:31;;;;;;;11.35;2.47;;;10.50;76.00;;;;;;4966983;28;80601;-68
2021/01/25 00:42:57;;;;;;;9.55;2.75;;;10.60;76.00;;;;;;4967274;28;80618;-70
2021/01/25 00:45:22;;;;;;;10.13;2.08;;;10.60;75.90;;;;;;4949736;28;81709;-69
2021/01/25 00:47:48;;;;;;;11.10;3.47;;;10.60;76.00;;;;;;4952176;28;80857;-69
2021/01/25 00:50:14;;;;;;;13.77;2.65;;;10.60;76.30;;;;;;4970698;28;79728;-69
2021/01/25 00:52:40;;;;;;;13.35;3.05;;;10.50;76.40;;;;;;4935864;28;80600;-69
2021/01/25 00:55:06;;;;;;;9.73;2.75;;;10.50;76.50;;;;;;4951813;28;82384;-68
2021/01/25 00:57:32;;;;;;;13.73;2.55;;;10.60;76.50;;;;;;4970091;28;80614;-70
2021/01/25 00:59:58;;;;;;;12.15;2.83;;;10.60;76.70;;;;;;4952290;28;81317;-70
2021/01/25 01:02:23;;;;;;;19.95;3.58;;;10.60;76.90;;;;;;4951430;28;82610;-68
2021/01/25 01:04:49;;;;;;;12.25;3.22;;;10.60;77.20;;;;;;4934545;28;83399;-68
2021/01/25 01:07:16;;;;;;;10.35;3.38;;;10.60;77.40;;;;;;4951760;28;83305;-67
2021/01/25 01:09:41;;;;;;;19.80;3.70;;;10.60;77.60;;;;;;4951794;28;81822;-68
2021/01/25 01:12:08;;;;;;;12.82;3.97;;;10.60;77.80;;;;;;4968837;28;82726;-69
2021/01/25 01:14:33;;;;;;;13.27;2.92;;;10.70;77.90;;;;;;4951512;28;82578;-71
2021/01/25 01:16:59;;;;;;;15.85;2.60;;;10.60;78.20;;;;;;4951889;28;80637;-71
2021/01/25 01:19:25;;;;;;;11.98;2.50;;;10.60;78.40;;;;;;4968080;28;80246;-71
2021/01/25 01:21:51;;;;;;;15.13;3.00;;;10.70;78.60;;;;;;4951505;28;83067;-71
2021/01/25 01:24:17;;;;;;;12.82;2.33;;;10.60;78.80;;;;;;4951705;28;80430;-72
2021/01/25 01:26:42;;;;;;;11.40;3.15;;;10.60;78.90;;;;;;4951492;28;81182;-73
2021/01/25 01:29:08;;;;;;;16.38;3.05;;;10.70;78.90;;;;;;4951734;28;82719;-72
2021/01/25 01:31:34;;;;;;;11.00;2.33;;;10.70;79.00;;;;;;4969455;28;80555;-71
2021/01/25 01:33:59;;;;;;;11.02;2.38;;;10.70;79.20;;;;;;4951465;28;81837;-70
2021/01/25 01:36:25;;;;;;;9.98;1.70;;;10.70;79.30;;;;;;4969531;28;80537;-70
2021/01/25 01:38:51;;;;;;;14.50;2.38;;;10.80;79.30;;;;;;4951230;28;80319;-70
2021/01/25 01:41:17;;;;;;;13.68;2.15;;;10.80;79.40;;;;;;4951543;28;82971;-70
2021/01/25 01:43:42;;;;;;;9.98;2.47;;;10.80;79.40;;;;;;4951263;28;81653;-70
2021/01/25 01:46:09;;;;;;;15.32;2.63;;;10.80;79.60;;;;;;4950372;28;82584;-69
2021/01/25 01:48:35;;;;;;;10.60;3.25;;;10.80;79.70;;;;;;4951554;28;80819;-69
2021/01/25 01:51:00;;;;;;;15.73;3.90;;;10.80;79.70;;;;;;4967668;28;82455;-70
2021/01/25 01:53:26;;;;;;;12.55;2.95;;;10.80;79.80;;;;;;4951279;28;80693;-69
2021/01/25 01:55:52;;;;;;;17.70;2.80;;;10.70;80.00;;;;;;4968931;28;80930;-70
2021/01/25 01:58:19;;;;;;;13.52;3.55;;;10.70;80.10;;;;;;4949932;28;79994;-70
2021/01/25 02:00:45;;;;;;;12.80;2.45;;;10.70;80.20;;;;;;4969164;28;80538;-69
2021/01/25 02:03:11;;;;;;;13.18;2.72;;;10.70;80.30;;;;;;4951282;28;80435;-70
2021/01/25 02:05:39;;;;;;;17.83;3.95;;;10.70;80.50;;;;;;4968972;28;80497;-70
2021/01/25 02:08:05;;;;;;;15.30;3.22;;;10.70;80.50;;;;;;4950899;28;82934;-68
2021/01/25 02:10:31;;;;;;;22.70;4.20;;;10.70;80.70;;;;;;4950986;28;83418;-69
2021/01/25 02:13:00;;;;;;;13.93;4.57;;;10.60;80.80;;;;;;4950805;28;82311;-73
2021/01/25 02:15:27;;;;;;;13.10;3.15;;;10.60;81.00;;;;;;4950538;28;83017;-70
2021/01/25 02:17:53;;;;;;;18.75;2.92;;;10.70;81.10;;;;;;4968922;28;80815;-69
2021/01/25 02:20:40;;;;;;;18.50;4.07;;;10.60;81.30;;;;;;4968925;28;80394;-71
2021/01/25 02:23:24;;;;;;;16.63;3.00;;;10.60;81.50;;;;;;4950158;28;82224;-71
2021/01/25 02:26:07;;;;;;;11.10;2.75;;;10.60;81.50;;;;;;4950705;28;82778;-70
2021/01/25 02:28:36;;;;;;;12.98;3.05;;;10.60;81.60;;;;;;4966527;28;82746;-70
2021/01/25 02:31:04;;;;;;;23.92;3.53;;;10.50;81.50;;;;;;4951180;28;83143;-71
2021/01/25 02:33:33;;;;;;;19.50;4.10;;;10.50;81.60;;;;;;4968651;28;80528;-70
2021/01/25 02:36:00;;;;;;;10.95;2.60;;;10.60;81.50;;;;;;4950426;28;80671;-70
2021/01/25 02:38:27;;;;;;;15.75;3.58;;;10.60;81.50;;;;;;4949824;28;82490;-70
2021/01/25 02:40:55;;;;;;;16.33;2.50;;;10.60;81.30;;;;;;4968535;28;80598;-70
2021/01/25 02:43:21;;;;;;;10.10;2.38;;;10.60;81.60;;;;;;4950523;28;79859;-70
2021/01/25 02:45:48;;;;;;;11.05;2.40;;;10.60;81.70;;;;;;4949538;28;82419;-71
2021/01/25 02:48:14;;;;;;;8.40;1.95;;;10.60;81.90;;;;;;4968562;28;79666;-71
2021/01/25 02:50:47;;;;;;;11.85;1.75;;;10.50;82.10;;;;;;4949690;28;82630;-71
2021/01/25 02:53:13;;;;;;;;;;;10.50;82.10;;;;;;4968624;28;80008;-69
2021/01/25 02:55:39;;;;;;;8.77;2.53;;;10.50;82.90;;;;;;4973028;28;75533;-72
2021/01/25 02:58:05;;;;;;;11.18;2.42;;;10.40;82.50;;;;;;4950239;28;80194;-69
2021/01/25 03:00:31;;;;;;;11.02;2.10;;;10.50;82.50;;;;;;4968134;28;80339;-69
2021/01/25 03:02:57;;;;;;;8.32;2.25;;;10.50;82.50;;;;;;4950132;28;80846;-69
2021/01/25 03:05:23;;;;;;;9.13;1.95;;;10.50;82.50;;;;;;4949577;28;82629;-70
2021/01/25 03:07:51;;;;;;;8.88;2.53;;;10.60;82.50;;;;;;4950055;28;80360;-70
2021/01/25 03:10:17;;;;;;;6.55;1.40;;;10.50;82.60;;;;;;4948810;28;80868;-72
2021/01/25 03:12:43;;;;;;;8.55;2.00;;;10.50;82.70;;;;;;4968506;28;80146;-73
2021/01/25 03:15:11;;;;;;;4.70;1.70;;;10.50;82.80;;;;;;4949673;28;83549;-72
2021/01/25 03:17:37;;;;;;;6.72;1.00;;;10.60;82.70;;;;;;4967892;28;80042;-74
2021/01/25 03:20:03;;;;;;;3.92;1.38;;;10.60;82.70;;;;;;4968061;28;79774;-73
2021/01/25 03:22:29;;;;;;;4.57;1.23;;;10.60;82.80;;;;;;4949880;28;82807;-71
2021/01/25 03:24:55;;;;;;;6.47;1.58;;;10.60;82.80;;;;;;4968103;28;79833;-73
2021/01/25 03:27:20;;;;;;;4.88;0.93;;;10.60;82.70;;;;;;4967703;28;79862;-70
2021/01/25 03:29:46;;;;;;;3.97;0.85;;;10.60;82.60;;;;;;4966008;28;80801;-71
2021/01/25 03:32:12;;;;;;;4.47;0.90;;;10.60;82.60;;;;;;4967547;28;80077;-71
2021/01/25 03:34:38;;;;;;;5.43;0.70;;;10.70;82.60;;;;;;4967841;28;81068;-70
2021/01/25 03:37:04;;;;;;;4.45;0.73;;;10.60;82.80;;;;;;4966483;28;83208;-70
2021/01/25 03:39:29;;;;;;;3.55;0.77;;;10.60;83.00;;;;;;4967265;28;80576;-71
2021/01/25 03:41:55;;;;;;;3.10;0.98;;;10.60;83.00;;;;;;4967476;28;79858;-71
2021/01/25 03:44:21;;;;;;;0.90;0.20;;;10.60;83.20;;;;;;4967400;28;80785;-71
2021/01/25 03:46:47;;;;;;;0.80;0.28;;;10.60;83.20;;;;;;4966447;28;80290;-72
2021/01/25 03:49:16;;;;;;;0.82;0.30;;;10.60;83.30;;;;;;4967286;28;80639;-72
2021/01/25 03:51:42;;;;;;;1.23;0.30;;;10.60;83.30;;;;;;4949591;28;82728;-73
2021/01/25 03:54:12;;;;;;;0.52;0.20;;;10.60;83.30;;;;;;4949234;28;82093;-75
2021/01/25 03:56:39;;;;;;;1.17;0.20;;;10.60;83.50;;;;;;4949033;28;83682;-73
2021/01/25 03:59:05;;;;;;;0.93;0.20;;;10.60;83.50;;;;;;4967556;28;80853;-70
2021/01/25 04:01:31;;;;;;;0.77;0.20;;;10.60;83.50;;;;;;4967479;28;80312;-71
2021/01/25 04:03:57;;;;;;;0.57;0.10;;;10.60;83.90;;;;;;4965776;28;80989;-69
2021/01/25 04:06:23;;;;;;;0.40;0.10;;;10.50;83.90;;;;;;4966993;28;80251;-68
2021/01/25 04:08:49;;;;;;;1.10;0.15;;;10.60;84.00;;;;;;4965748;28;81172;-69
2021/01/25 04:11:16;;;;;;;1.55;0.40;;;10.60;83.90;;;;;;4967369;28;79730;-70
2021/01/25 04:13:42;;;;;;;0.68;0.35;;;10.50;84.00;;;;;;4967232;28;80565;-69
2021/01/25 04:16:08;;;;;;;1.70;0.30;;;10.50;84.00;;;;;;4967187;28;80099;-69
2021/01/25 04:18:34;;;;;;;2.10;0.30;;;10.50;84.00;;;;;;4949040;28;82380;-69
2021/01/25 04:21:00;;;;;;;1.70;0.43;;;10.60;84.10;;;;;;4970658;28;81428;-69
2021/01/25 04:23:26;;;;;;;2.55;0.45;;;10.50;84.10;;;;;;4973571;28;79886;-68
2021/01/25 04:25:52;;;;;;;1.00;0.32;;;10.50;84.40;;;;;;4973585;28;80247;-70
2021/01/25 04:28:17;;;;;;;3.15;0.50;;;10.50;84.30;;;;;;4973595;28;80019;-71
2021/01/25 04:30:43;;;;;;;1.35;0.60;;;10.50;84.30;;;;;;4973272;28;80098;-71
2021/01/25 04:33:09;;;;;;;3.95;0.80;;;10.50;84.20;;;;;;4973417;28;80515;-72
2021/01/25 04:35:39;;;;;;;7.13;1.02;;;10.60;84.20;;;;;;4955583;28;83560;-71
2021/01/25 04:38:06;;;;;;;3.50;0.80;;;10.60;84.10;;;;;;4955377;28;84343;-73
2021/01/25 04:40:32;;;;;;;2.75;0.80;;;10.60;84.00;;;;;;4955570;28;83173;-71
2021/01/25 04:43:00;;;;;;;2.40;0.70;;;10.70;84.00;;;;;;4955368;28;80773;-70
2021/01/25 04:45:26;;;;;;;3.55;1.25;;;10.70;84.00;;;;;;4955576;28;79962;-72
2021/01/25 04:47:54;;;;;;;4.93;0.98;;;10.70;83.80;;;;;;4973157;28;80494;-71
2021/01/25 04:50:21;;;;;;;6.20;1.30;;;10.70;83.80;;;;;;4955220;28;83192;-71
2021/01/25 04:52:47;;;;;;;4.40;0.90;;;10.70;83.80;;;;;;4973027;28;80490;-71
2021/01/25 04:55:17;;;;;;;4.25;0.90;;;10.80;83.70;;;;;;4973307;28;80040;-71
2021/01/25 04:57:44;;;;;;;3.53;1.27;;;10.80;83.60;;;;;;4954154;28;81362;-70
2021/01/25 05:00:12;;;;;;;3.85;0.70;;;10.80;83.80;;;;;;4955115;28;82256;-69
2021/01/25 05:02:41;;;;;;;9.48;1.58;;;10.70;83.80;;;;;;4972941;28;80607;-69
2021/01/25 05:05:09;;;;;;;11.43;1.65;;;10.70;83.80;;;;;;4972935;28;80493;-70
2021/01/25 05:07:35;;;;;;;3.88;1.00;;;10.80;83.90;;;;;;4954703;28;83110;-73
2021/01/25 05:10:02;;;;;;;3.03;0.90;;;10.80;83.90;;;;;;4973319;28;79963;-69
2021/01/25 05:12:43;;;;;;;3.08;1.00;;;10.80;84.00;;;;;;4973381;28;79727;-71
2021/01/25 05:15:11;;;;;;;6.32;1.33;;;10.80;83.90;;;;;;4954862;28;80338;-69
2021/01/25 05:17:37;;;;;;;6.07;1.65;;;10.80;84.00;;;;;;4955055;28;81749;-69
2021/01/25 05:20:08;;;;;;;5.65;1.05;;;10.80;83.90;;;;;;4955154;28;80731;-70
2021/01/25 05:22:38;;;;;;;2.47;0.82;;;10.80;83.90;;;;;;4972401;28;80574;-70
2021/01/25 05:25:07;;;;;;;3.25;0.70;;;10.80;83.90;;;;;;4973062;28;80300;-71
2021/01/25 05:27:33;;;;;;;5.25;0.75;;;10.80;83.90;;;;;;4954669;28;81129;-69
2021/01/25 05:30:12;;;;;;;2.35;0.50;;;10.90;83.90;;;;;;4955403;28;82626;-68
2021/01/25 05:32:48;;;;;;;1.60;0.45;;;10.90;84.00;;;;;;4970019;28;81171;-68
2021/01/25 05:35:16;;;;;;;1.73;0.50;;;10.80;84.20;;;;;;4951710;28;80897;-71
2021/01/25 05:37:43;;;;;;;2.63;0.57;;;10.80;84.30;;;;;;4950756;28;82889;-69
2021/01/25 05:40:14;;;;;;;3.58;0.50;;;10.80;84.40;;;;;;4950883;28;82545;-69
2021/01/25 05:42:41;;;;;;;3.05;0.55;;;10.80;84.40;;;;;;4951315;28;82645;-68
2021/01/25 05:45:12;;;;;;;2.75;0.80;;;10.80;84.40;;;;;;4969482;28;80345;-69
2021/01/25 05:47:52;;;;;;;2.25;0.65;;;10.90;84.50;;;;;;4951553;28;80882;-68
2021/01/25 05:50:32;;;;;;;1.50;0.40;;;10.90;84.60;;;;;;4951041;28;82892;-72
2021/01/25 05:53:06;;;;;;;5.45;0.82;;;10.90;84.60;;;;;;4951169;28;81292;-69
2021/01/25 05:55:32;;;;;;;2.60;0.63;;;10.80;84.60;;;;;;4951099;28;80240;-69
2021/01/25 05:57:59;;;;;;;3.95;0.50;;;10.80;84.60;;;;;;4951341;28;82910;-70
2021/01/25 06:00:25;;;;;;;1.60;0.70;;;10.80;84.60;;;;;;4951250;28;82494;-69
2021/01/25 06:02:53;;;;;;;3.83;0.55;;;10.90;84.70;;;;;;4950951;28;82786;-68
2021/01/25 06:05:31;;;;;;;2.47;0.40;;;10.90;84.70;;;;;;4951220;28;83381;-70
2021/01/25 06:08:07;;;;;;;4.32;0.50;;;10.90;84.60;;;;;;4950722;28;82878;-68
2021/01/25 06:10:44;;;;;;;0.50;0.10;;;10.90;84.50;;;;;;4951169;28;83062;-69
2021/01/25 06:13:15;;;;;;;2.08;0.40;;;10.90;84.50;;;;;;4969136;28;80585;-68
2021/01/25 06:15:42;;;;;;;0.93;0.40;;;10.90;84.50;;;;;;4968872;28;79906;-70
2021/01/25 06:18:09;;;;;;;3.03;0.75;;;10.90;84.60;;;;;;4969135;28;80575;-69
2021/01/25 06:20:36;;;;;;;2.80;0.40;;;10.90;84.50;;;;;;4968851;28;80674;-69
2021/01/25 06:23:02;;;;;;;1.17;0.35;;;10.90;84.60;;;;;;4950872;28;82201;-67
2021/01/25 06:25:30;;;;;;;1.23;0.40;;;10.90;84.60;;;;;;4968596;28;79904;-67
2021/01/25 06:27:56;;;;;;;1.10;0.40;;;10.90;84.50;;;;;;4950799;28;80652;-69
2021/01/25 06:30:25;;;;;;;2.25;0.77;;;10.90;84.50;;;;;;4968572;28;80626;-69
2021/01/25 06:32:54;;;;;;;1.77;0.63;;;10.90;84.40;;;;;;4968652;28;80700;-68
2021/01/25 06:35:20;;;;;;;1.33;0.50;;;10.90;84.30;;;;;;4942297;28;82443;-64
2021/01/25 06:37:57;;;;;;;2.05;0.47;;;10.90;84.40;;;;;;4963132;28;81379;-65
2021/01/25 06:40:26;;;;;;;1.70;0.43;;;11.00;84.30;;;;;;4943696;28;80884;-65
2021/01/25 06:42:54;;;;;;;3.38;0.50;;;11.00;84.30;;;;;;4951773;28;81345;-65
2021/01/25 06:45:22;;;;;;;1.50;0.68;;;11.00;84.20;;;;;;4917810;28;83398;-64
2021/01/25 06:47:49;;;;;;;2.63;1.13;;;11.00;84.30;;;;;;4950924;28;81743;-63
2021/01/25 06:50:16;;;;;;;2.67;1.02;;;11.00;84.30;;;;;;4954720;28;82133;-63
2021/01/25 06:52:42;;;;;;;3.13;0.93;;;11.10;84.20;;;;;;4954922;28;81121;-66
2021/01/25 06:55:09;;;;;;;1.83;0.65;;;11.00;84.20;;;;;;4935705;28;82326;-63
2021/01/25 06:57:36;;;;;;;2.22;0.52;;;11.10;84.20;;;;;;4954301;28;81383;-63
2021/01/25 07:00:12;;;;;;;1.58;0.70;;;11.10;84.20;;;;;;4954674;28;80505;-67
2021/01/25 07:02:55;;;;;;;3.20;0.73;;;11.10;84.10;;;;;;4935926;28;83305;-63
2021/01/25 07:05:30;;;;;;;1.42;0.73;;;11.20;84.00;;;;;;4936764;28;82778;-64
2021/01/25 07:08:22;;;;;;;1.38;0.50;;;11.20;84.00;;;;;;4936498;28;81920;-65
2021/01/25 07:10:59;;;;;;;1.13;0.50;;;11.20;84.10;;;;;;4952686;28;81472;-64
2021/01/25 07:13:36;;;;;;;1.70;0.50;;;11.10;84.20;;;;;;4953926;28;81333;-65
2021/01/25 07:16:03;;;;;;;2.10;0.50;;;11.20;84.20;;;;;;4935704;28;81844;-64
2021/01/25 07:18:30;;;;;;;1.50;0.52;;;11.20;84.20;;;;;;4935885;28;81365;-71
2021/01/25 07:21:00;;;;;;;1.45;0.30;;;11.20;84.20;;;;;;4936372;28;83626;-71
2021/01/25 07:23:28;;;;;;;1.27;0.68;;;11.10;84.20;;;;;;4953127;28;81740;-62
2021/01/25 07:25:56;;;;;;;1.42;0.55;;;11.20;84.10;;;;;;4934401;28;84614;-66
2021/01/25 07:28:23;;;;;;;0.88;0.30;;;11.20;84.10;;;;;;4953724;28;82465;-65
2021/01/25 07:30:49;;;;;;;1.63;0.93;;;11.20;84.00;;;;;;4936042;28;81064;-70
2021/01/25 07:33:16;;;;;;;1.30;0.43;;;11.20;84.10;;;;;;4935993;28;81964;-70
2021/01/25 07:35:42;;;;;;;1.45;0.57;;;11.20;84.10;;;;;;4935704;28;81400;-73
2021/01/25 07:38:09;;;;;;;1.83;0.50;;;11.30;84.20;;;;;;4935497;28;82869;-73
2021/01/25 07:40:35;;;;;;;2.55;0.50;;;11.30;84.20;;;;;;4953898;28;80844;-71
2021/01/25 07:43:05;;;;;;;2.10;0.43;;;11.40;84.20;;;;;;4953519;28;81249;-71
2021/01/25 07:45:31;;;;;;;2.00;0.60;;;11.40;84.20;;;;;;4934798;28;82806;-71
2021/01/25 07:47:58;;;;;;;0.65;0.30;;;11.40;84.30;;;;;;4953030;28;80748;-70
2021/01/25 07:50:25;;;;;;;1.17;0.40;;;11.40;84.20;;;;;;4934780;28;82598;-64
2021/01/25 07:53:02;;;;;;;1.30;0.30;;;11.40;84.30;;;;;;4953300;28;81569;-65
2021/01/25 07:55:28;;;;;;;0.68;0.20;;;11.40;84.20;;;;;;4934676;28;83402;-64
2021/01/25 07:58:07;;;;;;;0.80;0.30;;;11.40;84.20;;;;;;4935440;28;82676;-65
2021/01/25 08:00:34;;;;;;;1.33;0.30;;;11.40;84.20;;;;;;4953993;28;81848;-62
2021/01/25 08:03:25;;;;;;;0.73;0.20;;;11.40;84.20;;;;;;4953301;28;81532;-62
2021/01/25 08:05:54;;;;;;;1.70;0.30;;;11.40;84.10;;;;;;4922453;28;80761;-64
2021/01/25 08:08:21;;;;;;;0.95;0.20;;;11.40;84.20;;;;;;4935028;28;83100;-62
2021/01/25 08:10:48;;;;;;;1.70;0.40;;;11.40;84.20;;;;;;4953764;28;81646;-63
2021/01/25 08:13:15;;;;;;;2.53;0.60;;;11.40;84.10;;;;;;4933955;28;85459;-64
2021/01/25 08:15:54;;;;;;;1.55;0.20;;;11.40;84.20;;;;;;4933688;28;81226;-62
2021/01/25 08:18:25;;;;;;;0.80;0.30;;;11.40;84.20;;;;;;4935564;28;81301;-62
2021/01/25 08:20:56;;;;;;;1.35;0.35;;;11.50;84.20;;;;;;4953561;28;81265;-62
2021/01/25 08:23:24;;;;;;;1.88;0.25;;;11.40;84.20;;;;;;4935492;28;80429;-63
2021/01/25 08:25:56;;;;;;;0.88;0.50;;;11.40;84.30;;;;;;4935604;28;82049;-66
2021/01/25 08:28:24;;;;;;;1.83;0.45;;;11.40;84.30;;;;;;4953545;28;80460;-62
2021/01/25 08:30:51;;;;;;;2.45;0.20;;;11.40;84.30;;;;;;4934413;28;81505;-62
2021/01/25 08:33:32;;;;;;;0.80;0.30;;;11.40;84.20;;;;;;4934934;28;83116;-66
2021/01/25 08:35:59;;;;;;;2.67;0.20;;;11.50;84.10;;;;;;4934487;28;81725;-63
2021/01/25 08:38:32;;;;;;;1.42;0.45;;;11.50;84.10;;;;;;4933566;28;81266;-65
2021/01/25 08:41:01;;;;;;;0.80;0.13;;;11.50;84.10;;;;;;4934663;28;80526;-61
2021/01/25 08:43:30;;;;;;;0.52;0.20;;;11.50;84.00;;;;;;4952907;28;82648;-63
2021/01/25 08:46:10;;;;;;;2.00;0.30;;;11.50;83.90;;;;;;4953021;28;81265;-64
2021/01/25 08:48:36;;;;;;;1.25;0.20;;;11.60;83.80;;;;;;4952377;28;81643;-65
2021/01/25 08:51:26;;;;;;;1.10;0.20;;;11.60;83.90;;;;;;4935106;28;81262;-61
2021/01/25 08:54:02;;;;;;;0.60;0.20;;;11.60;83.90;;;;;;4951694;28;81563;-61
2021/01/25 08:56:40;;;;;;;0.70;0.30;;;11.60;83.80;;;;;;4932318;28;82458;-62
2021/01/25 08:59:12;;;;;;;1.13;0.32;;;11.70;83.70;;;;;;4935330;28;81673;-62
2021/01/25 09:01:40;;;;;;;1.90;0.50;;;11.80;83.60;;;;;;4953138;28;81524;-66
2021/01/25 09:04:06;;;;;;;2.70;0.50;;;11.70;83.50;;;;;;4952984;28;81435;-63
2021/01/25 09:06:33;;;;;;;1.63;0.40;;;11.70;83.50;;;;;;4952578;28;81436;-64
2021/01/25 09:09:01;;;;;;;1.65;0.88;;;11.80;83.50;;;;;;4936638;28;83067;-65
2021/01/25 09:11:28;;;;;;;1.98;0.90;;;11.80;83.50;;;;;;4937333;28;82301;-62
2021/01/25 09:13:53;;;;;;;1.95;0.95;;;11.80;83.40;;;;;;4956431;28;80668;-63
2021/01/25 09:16:19;;;;;;;1.30;0.65;;;11.90;83.20;;;;;;4937699;28;82565;-63
2021/01/25 09:18:45;;;;;;;2.00;0.52;;;11.90;83.10;;;;;;4936239;28;82383;-65
2021/01/25 09:21:10;;;;;;;1.45;0.73;;;11.90;83.00;;;;;;4937873;28;81495;-63
2021/01/25 09:23:36;;;;;;;3.30;0.80;;;12.00;82.70;;;;;;4938412;28;81977;-63
2021/01/25 09:26:03;;;;;;;5.53;1.30;;;12.10;82.50;;;;;;4956053;28;81472;-64
2021/01/25 09:28:29;;;;;;;3.78;0.95;;;12.10;82.40;;;;;;4938009;28;81121;-64
2021/01/25 09:30:55;;;;;;;5.40;1.20;;;12.20;82.40;;;;;;4955709;28;81160;-63
2021/01/25 09:33:20;;;;;;;2.30;0.85;;;12.20;82.40;;;;;;4937934;28;81456;-65
2021/01/25 09:35:46;;;;;;;2.55;1.58;;;12.20;82.40;;;;;;4937274;28;81489;-65
2021/01/25 09:38:12;;;;;;;4.22;1.10;;;12.20;82.30;;;;;;4954613;28;82594;-62
2021/01/25 09:40:38;;;;;;;2.33;1.20;;;12.30;82.40;;;;;;4955756;28;81463;-63
2021/01/25 09:43:04;;;;;;;2.78;1.15;;;12.30;82.30;;;;;;4937770;28;81805;-63
2021/01/25 09:45:30;;;;;;;1.50;1.00;;;12.40;82.30;;;;;;4936983;28;83251;-61
2021/01/25 09:47:58;;;;;;;3.17;1.10;;;12.40;82.20;;;;;;4937820;28;82841;-63
2021/01/25 09:50:23;;;;;;;4.18;1.60;;;12.40;82.20;;;;;;4955714;28;80943;-61
2021/01/25 09:52:49;;;;;;;2.78;1.60;;;12.40;82.20;;;;;;4937087;28;82869;-63
2021/01/25 09:55:17;;;;;;;2.30;0.93;;;12.40;82.20;;;;;;4953943;28;80781;-68
2021/01/25 09:57:43;;;;;;;1.70;1.00;;;12.40;82.20;;;;;;4953744;28;81969;-68
2021/01/25 10:00:11;;;;;;;3.15;1.42;;;12.40;82.30;;;;;;4936780;28;81499;-68
2021/01/25 10:02:37;;;;;;;3.83;1.10;;;12.40;82.30;;;;;;4937613;28;82195;-68
2021/01/25 10:05:05;;;;;;;1.92;1.05;;;12.40;82.20;;;;;;4954788;28;81970;-61
2021/01/25 10:07:34;;;;;;;3.67;1.10;;;12.40;82.10;;;;;;4954754;28;82221;-61
2021/01/25 10:10:02;;;;;;;0.93;0.50;;;12.50;82.10;;;;;;4954688;28;80388;-62
2021/01/25 10:12:29;;;;;;;2.70;1.02;;;12.50;82.10;;;;;;4937546;28;81890;-62
2021/01/25 10:14:54;;;;;;;3.30;1.35;;;12.40;82.30;;;;;;4937170;28;82208;-61
2021/01/25 10:17:20;;;;;;;1.70;0.85;;;12.40;82.50;;;;;;4936926;28;83450;-62
2021/01/25 10:19:46;;;;;;;1.58;0.82;;;12.50;82.40;;;;;;4954154;28;80264;-62
2021/01/25 10:22:12;;;;;;;2.92;0.85;;;12.50;82.30;;;;;;4936819;28;80895;-62
2021/01/25 10:24:37;;;;;;;3.50;1.00;;;12.60;81.90;;;;;;4954727;28;81231;-62
2021/01/25 10:27:04;;;;;;;2.67;0.80;;;12.70;81.70;;;;;;4954525;28;81820;-63
2021/01/25 10:29:29;;;;;;;1.88;0.90;;;12.70;81.50;;;;;;4954827;28;81529;-64
2021/01/25 10:31:55;;;;;;;1.70;0.95;;;12.90;81.20;;;;;;4954635;28;81528;-62
2021/01/25 10:34:21;;;;;;;2.13;0.80;;;12.90;81.00;;;;;;4954381;28;80154;-62
2021/01/25 10:36:47;;;;;;;2.22;0.90;;;12.90;80.80;;;;;;4935826;28;82516;-63
2021/01/25 10:39:13;;;;;;;2.45;0.80;;;13.00;80.50;;;;;;4954136;28;82245;-61
2021/01/25 10:41:39;;;;;;;2.63;0.68;;;12.90;80.30;;;;;;4953026;28;82117;-62
2021/01/25 10:44:05;;;;;;;1.33;0.80;;;12.90;80.40;;;;;;4935373;28;81559;-63
2021/01/25 10:46:31;;;;;;;2.00;1.13;;;12.90;80.50;;;;;;4937818;28;82553;-63
2021/01/25 10:48:56;;;;;;;2.38;0.95;;;12.90;80.60;;;;;;4954304;28;81489;-61
2021/01/25 10:51:22;;;;;;;2.83;1.30;;;13.00;80.20;;;;;;4954959;28;82031;-65
2021/01/25 10:53:48;;;;;;;2.13;0.70;;;13.20;79.80;;;;;;4935755;28;82948;-61
2021/01/25 10:56:14;;;;;;;2.17;0.75;;;13.30;79.50;;;;;;4936005;28;81785;-63
2021/01/25 10:58:40;;;;;;;3.22;0.90;;;13.40;79.30;;;;;;4936793;28;81230;-62
2021/01/25 11:01:05;;;;;;;1.55;1.02;;;13.40;79.10;;;;;;4920110;28;83774;-61
2021/01/25 11:03:33;;;;;;;1.52;0.80;;;13.40;79.20;;;;;;4937104;28;83227;-65
2021/01/25 11:05:59;;;;;;;2.30;0.93;;;13.50;79.00;;;;;;4935632;28;83003;-62
2021/01/25 11:08:24;;;;;;;1.00;0.60;;;13.60;78.70;;;;;;4936682;28;82107;-66
2021/01/25 11:10:50;;;;;;;2.92;0.85;;;13.60;78.50;;;;;;4954282;28;81509;-64
2021/01/25 11:13:16;;;;;;;4.05;0.75;;;13.70;78.30;;;;;;4935689;28;82317;-63
2021/01/25 11:15:42;;;;;;;2.97;0.60;;;13.80;78.00;;;;;;4955341;28;81170;-61
2021/01/25 11:18:07;;;;;;;2.33;0.95;;;13.70;77.80;;;;;;4936097;28;81081;-61
2021/01/25 11:20:33;;;;;;;1.35;0.60;;;13.70;78.00;;;;;;4935125;28;83238;-61
2021/01/25 11:22:59;;;;;;;2.28;0.77;;;13.90;77.70;;;;;;4935173;28;81292;-62
2021/01/25 11:25:25;;;;;;;1.08;0.50;;;14.10;77.10;;;;;;4953193;28;82000;-61
2021/01/25 11:27:51;;;;;;;1.38;0.40;;;14.30;76.20;;;;;;4935794;28;82232;-61
2021/01/25 11:30:17;;;;;;;1.83;1.00;;;14.30;76.10;;;;;;4951221;28;81609;-62
2021/01/25 11:32:42;;;;;;;0.85;0.20;;;14.30;76.20;;;;;;4952694;28;81007;-64
2021/01/25 11:35:09;;;;;;;1.63;0.30;;;14.40;75.80;;;;;;4935443;28;82739;-64
2021/01/25 11:37:35;;;;;;;0.98;0.38;;;14.30;76.00;;;;;;4935870;28;82407;-65
2021/01/25 11:40:01;;;;;;;4.00;0.70;;;14.10;76.40;;;;;;4936091;28;80980;-68
2021/01/25 11:42:27;;;;;;;1.20;0.50;;;14.00;76.80;;;;;;4953964;28;81800;-62
2021/01/25 11:44:53;;;;;;;0.85;0.10;;;14.00;76.90;;;;;;4935925;28;81900;-67
2021/01/25 11:47:19;;;;;;;0.63;0.10;;;14.00;77.00;;;;;;4935678;28;82110;-61
2021/01/25 11:49:44;;;;;;;1.02;0.20;;;13.90;77.50;;;;;;4934737;28;83837;-62
2021/01/25 11:52:10;;;;;;;1.05;0.22;;;13.80;77.90;;;;;;4935659;28;82438;-63
2021/01/25 11:54:36;;;;;;;1.17;0.38;;;13.70;78.30;;;;;;4935041;28;82934;-62
2021/01/25 11:57:03;;;;;;;0.52;0.20;;;13.70;78.40;;;;;;4934544;28;82562;-63
2021/01/25 11:59:28;;;;;;;0.63;0.30;;;13.70;78.60;;;;;;4935510;28;82749;-63
2021/01/25 12:01:54;;;;;;;1.60;0.40;;;13.70;78.70;;;;;;4953768;28;81343;-67
2021/01/25 12:04:20;;;;;;;0.65;0.28;;;13.60;79.00;;;;;;4953014;28;82237;-62
2021/01/25 12:06:51;;;;;;;1.75;0.73;;;13.60;79.30;;;;;;4952648;28;80635;-62
2021/01/25 12:09:17;;;;;;;0.77;0.30;;;13.60;79.40;;;;;;4934975;28;83802;-63
2021/01/25 12:11:43;;;;;;;0.43;0.20;;;13.60;79.50;;;;;;4953516;28;82216;-63
2021/01/25 12:14:09;;;;;;;0.68;0.30;;;13.60;79.70;;;;;;4935197;28;82973;-64
2021/01/25 12:16:34;;;;;;;1.23;0.57;;;13.50;80.10;;;;;;4934381;28;83628;-61
2021/01/25 12:19:00;;;;;;;1.63;0.20;;;13.60;80.10;;;;;;4953854;28;82080;-62
2021/01/25 12:21:26;;;;;;;0.32;0.20;;;13.60;80.20;;;;;;4935482;28;81854;-62
2021/01/25 12:23:51;;;;;;;0.63;0.25;;;13.60;80.40;;;;;;4935166;28;81943;-61
2021/01/25 12:26:17;;;;;;;0.70;0.40;;;13.60;80.20;;;;;;4934686;28;82252;-61
2021/01/25 12:28:43;;;;;;;0.52;0.30;;;13.60;80.30;;;;;;4935597;28;83450;-62
2021/01/25 12:31:09;;;;;;;1.80;0.40;;;13.60;80.40;;;;;;4935754;28;83706;-62
2021/01/25 12:33:34;;;;;;;0.82;0.20;;;13.70;80.40;;;;;;4952100;28;82351;-66
2021/01/25 12:36:01;;;;;;;0.85;0.25;;;13.70;80.40;;;;;;4935295;28;82076;-67
2021/01/25 12:38:26;;;;;;;1.35;0.50;;;13.70;80.40;;;;;;4933456;28;83292;-66
2021/01/25 12:40:52;;;;;;;0.82;0.22;;;13.80;80.40;;;;;;4934285;28;82606;-65
2021/01/25 12:43:18;;;;;;;0.57;0.20;;;13.80;80.20;;;;;;4938016;28;83017;-71
2021/01/25 12:45:44;;;;;;;0.82;0.28;;;13.90;80.10;;;;;;4938688;28;81384;-63
2021/01/25 12:48:10;;;;;;;0.73;0.17;;;13.90;80.00;;;;;;4937375;28;81775;-66